AirNav   Air Wisconsin Airman Trainee
 
 288 users online  

23FL Gyro Town USA Airport
Wimauma, Florida, USA

GOING TO WIMAUMA?


FAA INFORMATION EFFECTIVE 31 JANUARY 2019

Location

FAA Identifier: 23FL
Lat/Long: 27-41-04.0000N / 082-14-39.0000W
27-41.066667N / 082-14.650000W
27.6844444 / -82.2441667
(estimated)
Elevation: 65 ft. / 20 m (estimated)
From city: 5 miles W of WIMAUMA, FL
Time zone: UTC -5 (UTC -4 during Daylight Saving Time)
Zip code: 33547

Airport Operations

Airport use: Private use. Permission required prior to landing
Activation date: 03/2004
Control tower: no
ARTCC: MIAMI CENTER
FSS: SAINT PETERSBURG FLIGHT SERVICE STATION
Attendance: UNATNDD
Segmented circle: no

Airport Communications

WX AWOS-3 at TPF (18 nm NW): 118.925 (813-251-6824)
WX AWOS-3 at PCM (19 nm N): 120.025 (813-764-8259)

Nearby radio navigation aids

VOR radial/distance  VOR name  Freq  Var
LALr213/21.8LAKELAND VORTAC116.0001E
SRQr051/23.8SARASOTA VOR/DME117.0005W
PIEr125/26.9ST PETERSBURG VORTAC116.4005W

Airport Services

Runway Information

Runway 9/27

Dimensions: 2188 x 100 ft. / 667 x 30 m
Surface: turf
RUNWAY 9  RUNWAY 27
Traffic pattern: leftleft

Airport Ownership and Management from official FAA records

Ownership: Privately-owned
Owner: ERNEST BOYETTE
19242 GRANGE HALL LP
WIMAUMA, FL 33598
Phone 813-634-3370
Manager: ERNEST BOYETTE
19242 GRANGE HALL LP
WIMAUMA, FL 33598
Phone 813-634-3370

Instrument Procedures

There are no published instrument procedures at 23FL.

Some nearby airports with instrument procedures:

KTPF - Peter O Knight Airport (18 nm NW)
KMCF - MacDill Air Force Base (18 nm NW)
KPCM - Plant City Airport (19 nm N)
KVDF - Tampa Executive Airport (20 nm N)
KSPG - Albert Whitted Airport (21 nm W)
 
Loc | Ops | Rwys | IFR | FBO | Links
Com | Nav | Svcs | Stats | Notes

Reliance Aviation
AirBoss

 
Area around 23FL (Gyro Town USA Airport)
 
Road maps at: MapQuest Bing Google
 
Aerial photo
No photo
 
Sectional chart

 
Airport distance calculator
Flying to Gyro Town USA Airport? Find the distance to fly.

From to 23FL

Sunrise and sunset
Times for 23-Feb-2019
 Local
(UTC-5)
 Zulu
(UTC)
Morning civil twilight06:3711:37
Sunrise07:0012:00
Sunset18:2523:25
Evening civil twilight18:4823:48

Current date and time
Zulu (UTC)  23-Feb-2019 10:12:35
Local (UTC-5)  23-Feb-2019 05:12:35
 
METAR
KMCF 
18nm NW 
230856Z AUTO 26003KT 10SM SCT085 20/19 A3011 RMK AO2 SLP199 T02040190 55010 FZRANO $
KTPF 
18nm NW 
230955Z AUTO 00000KT 10SM OVC090 A3013 RMK AO2
KPCM 
19nm N 
230955Z AUTO 13005KT 7SM SCT003 BKN080 22/21 A3015 RMK AO2
KVDF 
21nm N 
230955Z AUTO 00000KT 7SM CLR 20/18 A3013 RMK AO2
KLAL 
21nm NE 
230915Z AUTO 17008KT 10SM CLR 21/20 A3013 RMK AO2
KSPG 
21nm W 
230953Z AUTO A3010 RMK AO2 SLP194 PWINO PNO $
KTPA 
23nm NW 
230953Z 15005KT 10SM FEW023 BKN085 21/19 A3013 RMK AO2 SLP202 T02060189 $
KSRQ 
24nm SW 
230953Z AUTO 12004KT 10SM SCT075 21/19 A3010 RMK AO2 SLP192 T02110194
KPIE 
27nm NW 
230953Z AUTO 19003KT 10SM OVC085 21/19 A3012 RMK AO2 SLP199 T02110194
KBOW 
29nm NE 
230955Z AUTO 14008KT 1 1/4SM BR OVC002 22/22 A3013 RMK AO2
TAF
KMCF 
18nm NW 
230100Z 2301/2407 VRB06KT 9999 SCT025 BKN040 QNH3009INS BECMG 2313/2314 16009KT 9999 FEW015 SCT025 QNH3008INS BECMG 2315/2316 17009KT 9999 SCT025 QNH3004INS BECMG 2401/2402 19006KT 9999 BKN020 QNH3008INS TX29/2320Z TN20/2311Z
KLAL 
21nm NE 
230537Z 2306/2406 VRB04KT P6SM SCT050 OVC070 FM231200 16004KT P6SM SCT020 BKN070 FM231800 18009KT P6SM SCT025 BKN080 FM240000 20004KT P6SM FEW035 SCT050 AMD NOT SKED TIL 231200
NOTAMs
Click for the latest NOTAMs
NOTAMs are issued by the DoD/FAA and will open in a separate window not controlled by AirNav.

 

 
 

Would you like to see your business listed on this page?

 If your business provides an interesting product or service to pilots, flight crews, aircraft, or users of the Gyro Town USA Airport, you should consider listing it here.  To start the listing process, click on the button below
 
Add a business
 

Other Pages about Gyro Town USA Airport

Update a link
 
Copyright © AirNav, LLC. All rights reserved. Privacy Policy  Contact